sensor_id;sensor_type;location;lat;lon;timestamp;P1;durP1;ratioP1;P2;durP2;ratioP2
38609;SDS011;24367;51.640;9.566;2022-12-05T00:00:47;5.78;;;5.18;;
38609;SDS011;24367;51.640;9.566;2022-12-05T00:03:14;6.60;;;5.55;;
38609;SDS011;24367;51.640;9.566;2022-12-05T00:05:41;5.47;;;4.90;;
38609;SDS011;24367;51.640;9.566;2022-12-05T00:08:07;5.82;;;5.22;;
38609;SDS011;24367;51.640;9.566;2022-12-05T00:10:35;6.50;;;5.70;;
38609;SDS011;24367;51.640;9.566;2022-12-05T00:13:02;6.32;;;5.72;;
38609;SDS011;24367;51.640;9.566;2022-12-05T00:15:29;5.25;;;4.63;;
38609;SDS011;24367;51.640;9.566;2022-12-05T00:17:55;6.20;;;5.60;;
38609;SDS011;24367;51.640;9.566;2022-12-05T00:20:22;5.40;;;4.90;;
38609;SDS011;24367;51.640;9.566;2022-12-05T00:22:48;6.15;;;5.15;;
38609;SDS011;24367;51.640;9.566;2022-12-05T00:25:15;6.55;;;5.30;;
38609;SDS011;24367;51.640;9.566;2022-12-05T00:27:43;5.57;;;4.97;;
38609;SDS011;24367;51.640;9.566;2022-12-05T00:30:09;5.30;;;4.78;;
38609;SDS011;24367;51.640;9.566;2022-12-05T00:32:36;6.10;;;5.47;;
38609;SDS011;24367;51.640;9.566;2022-12-05T00:35:03;6.15;;;5.20;;
38609;SDS011;24367;51.640;9.566;2022-12-05T00:37:30;5.60;;;5.00;;
38609;SDS011;24367;51.640;9.566;2022-12-05T00:39:57;5.78;;;5.10;;
38609;SDS011;24367;51.640;9.566;2022-12-05T00:42:23;5.78;;;5.18;;
38609;SDS011;24367;51.640;9.566;2022-12-05T00:44:51;5.00;;;4.50;;
38609;SDS011;24367;51.640;9.566;2022-12-05T00:47:18;5.97;;;5.38;;
38609;SDS011;24367;51.640;9.566;2022-12-05T00:49:44;6.53;;;5.35;;
38609;SDS011;24367;51.640;9.566;2022-12-05T00:52:11;5.53;;;4.93;;
38609;SDS011;24367;51.640;9.566;2022-12-05T00:54:37;6.10;;;5.47;;
38609;SDS011;24367;51.640;9.566;2022-12-05T00:57:04;5.32;;;4.82;;
38609;SDS011;24367;51.640;9.566;2022-12-05T00:59:30;5.55;;;4.95;;
38609;SDS011;24367;51.640;9.566;2022-12-05T01:01:58;5.38;;;4.88;;
38609;SDS011;24367;51.640;9.566;2022-12-05T01:04:25;6.07;;;5.47;;
38609;SDS011;24367;51.640;9.566;2022-12-05T01:06:52;6.13;;;5.53;;
38609;SDS011;24367;51.640;9.566;2022-12-05T01:09:20;5.28;;;4.75;;
38609;SDS011;24367;51.640;9.566;2022-12-05T01:11:47;6.03;;;5.43;;
38609;SDS011;24367;51.640;9.566;2022-12-05T01:14:15;6.22;;;5.13;;
38609;SDS011;24367;51.640;9.566;2022-12-05T01:16:43;5.68;;;5.03;;
38609;SDS011;24367;51.640;9.566;2022-12-05T01:19:12;5.90;;;5.25;;
38609;SDS011;24367;51.640;9.566;2022-12-05T01:21:40;5.68;;;5.18;;
38609;SDS011;24367;51.640;9.566;2022-12-05T01:24:07;5.15;;;4.65;;
38609;SDS011;24367;51.640;9.566;2022-12-05T01:26:34;5.90;;;5.30;;
38609;SDS011;24367;51.640;9.566;2022-12-05T01:29:01;5.40;;;4.90;;
38609;SDS011;24367;51.640;9.566;2022-12-05T01:31:30;5.43;;;4.93;;
38609;SDS011;24367;51.640;9.566;2022-12-05T01:33:59;5.50;;;5.00;;
38609;SDS011;24367;51.640;9.566;2022-12-05T01:36:28;4.70;;;4.28;;
38609;SDS011;24367;51.640;9.566;2022-12-05T01:38:55;6.03;;;5.43;;
38609;SDS011;24367;51.640;9.566;2022-12-05T01:41:23;6.53;;;5.07;;
38609;SDS011;24367;51.640;9.566;2022-12-05T01:43:52;5.85;;;5.25;;
38609;SDS011;24367;51.640;9.566;2022-12-05T01:46:23;4.78;;;4.22;;
38609;SDS011;24367;51.640;9.566;2022-12-05T01:48:51;5.75;;;5.22;;
38609;SDS011;24367;51.640;9.566;2022-12-05T01:51:20;5.70;;;5.10;;
38609;SDS011;24367;51.640;9.566;2022-12-05T01:53:49;5.60;;;5.03;;
38609;SDS011;24367;51.640;9.566;2022-12-05T01:56:16;5.22;;;4.72;;
38609;SDS011;24367;51.640;9.566;2022-12-05T01:58:43;6.05;;;5.45;;
38609;SDS011;24367;51.640;9.566;2022-12-05T02:01:10;5.80;;;5.20;;
38609;SDS011;24367;51.640;9.566;2022-12-05T02:03:38;5.97;;;5.03;;
38609;SDS011;24367;51.640;9.566;2022-12-05T02:06:06;5.18;;;4.60;;
38609;SDS011;24367;51.640;9.566;2022-12-05T02:08:34;5.45;;;4.85;;
38609;SDS011;24367;51.640;9.566;2022-12-05T02:11:04;5.10;;;4.60;;
38609;SDS011;24367;51.640;9.566;2022-12-05T02:13:34;5.32;;;4.82;;
38609;SDS011;24367;51.640;9.566;2022-12-05T02:16:10;5.43;;;4.93;;
38609;SDS011;24367;51.640;9.566;2022-12-05T02:18:44;5.40;;;4.88;;
38609;SDS011;24367;51.640;9.566;2022-12-05T02:21:34;5.63;;;4.63;;
38609;SDS011;24367;51.640;9.566;2022-12-05T02:24:14;5.38;;;4.88;;
38609;SDS011;24367;51.640;9.566;2022-12-05T02:26:54;5.60;;;5.07;;
38609;SDS011;24367;51.640;9.566;2022-12-05T02:32:27;5.30;;;4.80;;
38609;SDS011;24367;51.640;9.566;2022-12-05T02:35:02;5.05;;;4.53;;
38609;SDS011;24367;51.640;9.566;2022-12-05T02:37:35;5.68;;;5.18;;
38609;SDS011;24367;51.640;9.566;2022-12-05T02:40:08;6.18;;;5.22;;
38609;SDS011;24367;51.640;9.566;2022-12-05T02:42:37;5.20;;;4.70;;
38609;SDS011;24367;51.640;9.566;2022-12-05T02:45:09;5.00;;;4.50;;
38609;SDS011;24367;51.640;9.566;2022-12-05T02:47:42;5.10;;;4.60;;
38609;SDS011;24367;51.640;9.566;2022-12-05T02:50:12;4.90;;;4.40;;
38609;SDS011;24367;51.640;9.566;2022-12-05T02:52:41;5.38;;;4.63;;
38609;SDS011;24367;51.640;9.566;2022-12-05T02:55:08;5.85;;;5.25;;
38609;SDS011;24367;51.640;9.566;2022-12-05T02:57:35;5.18;;;4.63;;
38609;SDS011;24367;51.640;9.566;2022-12-05T03:00:03;5.18;;;4.68;;
38609;SDS011;24367;51.640;9.566;2022-12-05T03:02:31;5.65;;;5.05;;
38609;SDS011;24367;51.640;9.566;2022-12-05T03:05:01;5.30;;;4.80;;
38609;SDS011;24367;51.640;9.566;2022-12-05T03:07:34;5.50;;;4.97;;
38609;SDS011;24367;51.640;9.566;2022-12-05T03:10:02;4.82;;;4.32;;
38609;SDS011;24367;51.640;9.566;2022-12-05T03:12:32;5.43;;;4.65;;
38609;SDS011;24367;51.640;9.566;2022-12-05T03:15:03;5.47;;;4.78;;
38609;SDS011;24367;51.640;9.566;2022-12-05T03:17:33;5.70;;;4.82;;
38609;SDS011;24367;51.640;9.566;2022-12-05T03:20:03;5.72;;;5.13;;
38609;SDS011;24367;51.640;9.566;2022-12-05T03:22:34;5.30;;;4.80;;
38609;SDS011;24367;51.640;9.566;2022-12-05T03:25:03;5.57;;;5.00;;
38609;SDS011;24367;51.640;9.566;2022-12-05T03:27:32;5.30;;;4.80;;
38609;SDS011;24367;51.640;9.566;2022-12-05T03:30:06;5.55;;;4.95;;
38609;SDS011;24367;51.640;9.566;2022-12-05T03:32:36;5.22;;;4.68;;
38609;SDS011;24367;51.640;9.566;2022-12-05T03:35:05;4.95;;;4.45;;
38609;SDS011;24367;51.640;9.566;2022-12-05T03:37:37;5.43;;;4.65;;
38609;SDS011;24367;51.640;9.566;2022-12-05T03:40:08;4.93;;;4.43;;
38609;SDS011;24367;51.640;9.566;2022-12-05T03:42:39;5.28;;;4.78;;
38609;SDS011;24367;51.640;9.566;2022-12-05T03:45:10;5.20;;;4.70;;
38609;SDS011;24367;51.640;9.566;2022-12-05T03:47:39;5.75;;;5.15;;
38609;SDS011;24367;51.640;9.566;2022-12-05T03:50:13;5.15;;;4.65;;
38609;SDS011;24367;51.640;9.566;2022-12-05T03:52:44;5.72;;;5.13;;
38609;SDS011;24367;51.640;9.566;2022-12-05T03:55:12;5.43;;;4.93;;
38609;SDS011;24367;51.640;9.566;2022-12-05T03:57:41;5.50;;;4.93;;
38609;SDS011;24367;51.640;9.566;2022-12-05T04:00:10;5.38;;;4.40;;
38609;SDS011;24367;51.640;9.566;2022-12-05T04:02:39;5.07;;;4.43;;
38609;SDS011;24367;51.640;9.566;2022-12-05T04:05:17;5.13;;;4.63;;
38609;SDS011;24367;51.640;9.566;2022-12-05T04:07:47;4.68;;;4.18;;
38609;SDS011;24367;51.640;9.566;2022-12-05T04:10:17;5.50;;;5.00;;
38609;SDS011;24367;51.640;9.566;2022-12-05T04:12:45;5.00;;;4.40;;
38609;SDS011;24367;51.640;9.566;2022-12-05T04:15:13;4.95;;;4.45;;
38609;SDS011;24367;51.640;9.566;2022-12-05T04:17:44;5.43;;;4.90;;
38609;SDS011;24367;51.640;9.566;2022-12-05T04:20:12;5.00;;;4.50;;
38609;SDS011;24367;51.640;9.566;2022-12-05T04:23:00;5.05;;;4.32;;
38609;SDS011;24367;51.640;9.566;2022-12-05T04:25:28;5.03;;;4.45;;
38609;SDS011;24367;51.640;9.566;2022-12-05T04:28:04;5.10;;;4.60;;
38609;SDS011;24367;51.640;9.566;2022-12-05T04:30:47;5.28;;;4.78;;
38609;SDS011;24367;51.640;9.566;2022-12-05T04:33:16;4.93;;;4.43;;
38609;SDS011;24367;51.640;9.566;2022-12-05T04:35:52;5.18;;;4.65;;
38609;SDS011;24367;51.640;9.566;2022-12-05T04:38:20;4.85;;;4.35;;
38609;SDS011;24367;51.640;9.566;2022-12-05T04:40:51;4.80;;;4.25;;
38609;SDS011;24367;51.640;9.566;2022-12-05T04:43:19;5.18;;;4.35;;
38609;SDS011;24367;51.640;9.566;2022-12-05T04:45:47;5.15;;;4.65;;
38609;SDS011;24367;51.640;9.566;2022-12-05T04:48:15;5.05;;;4.47;;
38609;SDS011;24367;51.640;9.566;2022-12-05T04:50:43;5.00;;;4.50;;
38609;SDS011;24367;51.640;9.566;2022-12-05T04:53:11;5.07;;;4.57;;
38609;SDS011;24367;51.640;9.566;2022-12-05T04:55:40;5.15;;;4.65;;
38609;SDS011;24367;51.640;9.566;2022-12-05T04:58:08;4.93;;;4.43;;
38609;SDS011;24367;51.640;9.566;2022-12-05T05:00:37;5.53;;;4.82;;
38609;SDS011;24367;51.640;9.566;2022-12-05T05:03:09;5.18;;;4.60;;
38609;SDS011;24367;51.640;9.566;2022-12-05T05:05:41;6.18;;;4.38;;
38609;SDS011;24367;51.640;9.566;2022-12-05T05:08:16;5.07;;;4.57;;
38609;SDS011;24367;51.640;9.566;2022-12-05T05:10:47;5.20;;;4.47;;
38609;SDS011;24367;51.640;9.566;2022-12-05T05:13:17;5.10;;;4.60;;
38609;SDS011;24367;51.640;9.566;2022-12-05T05:15:43;4.45;;;3.97;;
38609;SDS011;24367;51.640;9.566;2022-12-05T05:18:10;4.82;;;4.20;;
38609;SDS011;24367;51.640;9.566;2022-12-05T05:20:36;5.63;;;5.03;;
38609;SDS011;24367;51.640;9.566;2022-12-05T05:23:03;4.88;;;4.38;;
38609;SDS011;24367;51.640;9.566;2022-12-05T05:25:31;4.88;;;4.43;;
38609;SDS011;24367;51.640;9.566;2022-12-05T05:27:57;4.60;;;4.20;;
38609;SDS011;24367;51.640;9.566;2022-12-05T05:30:24;5.07;;;4.57;;
38609;SDS011;24367;51.640;9.566;2022-12-05T05:32:50;5.40;;;4.68;;
38609;SDS011;24367;51.640;9.566;2022-12-05T05:35:17;5.93;;;4.55;;
38609;SDS011;24367;51.640;9.566;2022-12-05T05:37:44;5.18;;;4.68;;
38609;SDS011;24367;51.640;9.566;2022-12-05T05:40:11;5.05;;;4.55;;
38609;SDS011;24367;51.640;9.566;2022-12-05T05:42:42;4.78;;;4.30;;
38609;SDS011;24367;51.640;9.566;2022-12-05T05:45:09;4.78;;;4.28;;
38609;SDS011;24367;51.640;9.566;2022-12-05T05:47:36;4.88;;;4.38;;
38609;SDS011;24367;51.640;9.566;2022-12-05T05:50:03;4.78;;;4.10;;
38609;SDS011;24367;51.640;9.566;2022-12-05T05:52:31;4.65;;;4.15;;
38609;SDS011;24367;51.640;9.566;2022-12-05T05:54:58;4.90;;;4.22;;
38609;SDS011;24367;51.640;9.566;2022-12-05T05:57:25;4.60;;;4.20;;
38609;SDS011;24367;51.640;9.566;2022-12-05T05:59:53;5.10;;;3.63;;
38609;SDS011;24367;51.640;9.566;2022-12-05T06:02:19;4.95;;;4.45;;
38609;SDS011;24367;51.640;9.566;2022-12-05T06:04:46;5.95;;;4.10;;
38609;SDS011;24367;51.640;9.566;2022-12-05T06:07:13;5.57;;;4.63;;
38609;SDS011;24367;51.640;9.566;2022-12-05T06:09:39;16.35;;;4.35;;
38609;SDS011;24367;51.640;9.566;2022-12-05T06:12:06;5.72;;;4.38;;
38609;SDS011;24367;51.640;9.566;2022-12-05T06:14:33;7.32;;;3.95;;
38609;SDS011;24367;51.640;9.566;2022-12-05T06:17:00;6.20;;;4.13;;
38609;SDS011;24367;51.640;9.566;2022-12-05T06:19:27;4.80;;;4.13;;
38609;SDS011;24367;51.640;9.566;2022-12-05T06:21:54;5.80;;;4.43;;
38609;SDS011;24367;51.640;9.566;2022-12-05T06:24:20;5.60;;;4.70;;
38609;SDS011;24367;51.640;9.566;2022-12-05T06:26:47;5.45;;;4.00;;
38609;SDS011;24367;51.640;9.566;2022-12-05T06:29:13;5.13;;;4.30;;
38609;SDS011;24367;51.640;9.566;2022-12-05T06:31:40;5.82;;;4.65;;
38609;SDS011;24367;51.640;9.566;2022-12-05T06:34:08;6.07;;;4.32;;
38609;SDS011;24367;51.640;9.566;2022-12-05T06:36:35;5.38;;;4.38;;
38609;SDS011;24367;51.640;9.566;2022-12-05T06:39:02;7.65;;;4.55;;
38609;SDS011;24367;51.640;9.566;2022-12-05T06:41:29;6.60;;;4.28;;
38609;SDS011;24367;51.640;9.566;2022-12-05T06:43:56;5.50;;;4.30;;
38609;SDS011;24367;51.640;9.566;2022-12-05T06:46:23;7.13;;;4.60;;
38609;SDS011;24367;51.640;9.566;2022-12-05T06:48:51;4.75;;;4.25;;
38609;SDS011;24367;51.640;9.566;2022-12-05T06:51:19;5.03;;;4.35;;
38609;SDS011;24367;51.640;9.566;2022-12-05T06:53:46;5.90;;;4.47;;
38609;SDS011;24367;51.640;9.566;2022-12-05T06:56:13;4.72;;;4.15;;
38609;SDS011;24367;51.640;9.566;2022-12-05T06:58:41;4.85;;;4.25;;
38609;SDS011;24367;51.640;9.566;2022-12-05T07:01:09;5.65;;;4.20;;
38609;SDS011;24367;51.640;9.566;2022-12-05T07:03:54;7.28;;;4.60;;
38609;SDS011;24367;51.640;9.566;2022-12-05T07:06:22;5.85;;;4.50;;
38609;SDS011;24367;51.640;9.566;2022-12-05T07:08:49;5.13;;;4.30;;
38609;SDS011;24367;51.640;9.566;2022-12-05T07:11:15;4.90;;;3.85;;
38609;SDS011;24367;51.640;9.566;2022-12-05T07:13:42;5.18;;;4.10;;
38609;SDS011;24367;51.640;9.566;2022-12-05T07:16:08;4.53;;;3.88;;
38609;SDS011;24367;51.640;9.566;2022-12-05T07:18:35;8.85;;;4.22;;
38609;SDS011;24367;51.640;9.566;2022-12-05T07:21:02;5.55;;;4.95;;
38609;SDS011;24367;51.640;9.566;2022-12-05T07:23:32;5.32;;;4.03;;
38609;SDS011;24367;51.640;9.566;2022-12-05T07:25:58;6.22;;;4.15;;
38609;SDS011;24367;51.640;9.566;2022-12-05T07:28:30;6.35;;;4.28;;
38609;SDS011;24367;51.640;9.566;2022-12-05T07:30:59;7.15;;;4.70;;
38609;SDS011;24367;51.640;9.566;2022-12-05T07:33:26;8.82;;;4.10;;
38609;SDS011;24367;51.640;9.566;2022-12-05T07:35:57;4.57;;;4.07;;
38609;SDS011;24367;51.640;9.566;2022-12-05T07:38:24;5.53;;;4.22;;
38609;SDS011;24367;51.640;9.566;2022-12-05T07:40:52;5.32;;;3.65;;
38609;SDS011;24367;51.640;9.566;2022-12-05T07:43:19;7.13;;;4.63;;
38609;SDS011;24367;51.640;9.566;2022-12-05T07:45:46;4.90;;;4.07;;
38609;SDS011;24367;51.640;9.566;2022-12-05T07:48:12;5.35;;;4.18;;
38609;SDS011;24367;51.640;9.566;2022-12-05T07:50:39;4.90;;;3.78;;
38609;SDS011;24367;51.640;9.566;2022-12-05T07:53:05;6.57;;;4.28;;
38609;SDS011;24367;51.640;9.566;2022-12-05T07:55:32;5.50;;;3.58;;
38609;SDS011;24367;51.640;9.566;2022-12-05T07:58:00;4.45;;;4.05;;
38609;SDS011;24367;51.640;9.566;2022-12-05T08:00:26;5.32;;;3.95;;
38609;SDS011;24367;51.640;9.566;2022-12-05T08:02:53;6.93;;;4.47;;
38609;SDS011;24367;51.640;9.566;2022-12-05T08:05:19;4.78;;;4.13;;
38609;SDS011;24367;51.640;9.566;2022-12-05T08:07:46;5.20;;;4.35;;
38609;SDS011;24367;51.640;9.566;2022-12-05T08:10:12;6.22;;;4.07;;
38609;SDS011;24367;51.640;9.566;2022-12-05T08:12:39;4.43;;;3.83;;
38609;SDS011;24367;51.640;9.566;2022-12-05T08:15:08;4.20;;;3.53;;
38609;SDS011;24367;51.640;9.566;2022-12-05T08:17:35;5.13;;;3.80;;
38609;SDS011;24367;51.640;9.566;2022-12-05T08:20:01;5.03;;;3.90;;
38609;SDS011;24367;51.640;9.566;2022-12-05T08:22:28;5.75;;;4.10;;
38609;SDS011;24367;51.640;9.566;2022-12-05T08:24:54;4.88;;;3.63;;
38609;SDS011;24367;51.640;9.566;2022-12-05T08:27:21;4.47;;;3.85;;
38609;SDS011;24367;51.640;9.566;2022-12-05T08:29:48;5.90;;;4.07;;
38609;SDS011;24367;51.640;9.566;2022-12-05T08:32:16;5.47;;;4.22;;
38609;SDS011;24367;51.640;9.566;2022-12-05T08:34:42;5.10;;;4.00;;
38609;SDS011;24367;51.640;9.566;2022-12-05T08:37:09;4.32;;;3.78;;
38609;SDS011;24367;51.640;9.566;2022-12-05T08:39:35;5.10;;;3.63;;
38609;SDS011;24367;51.640;9.566;2022-12-05T08:42:02;17.52;;;4.72;;
38609;SDS011;24367;51.640;9.566;2022-12-05T08:44:29;4.43;;;3.63;;
38609;SDS011;24367;51.640;9.566;2022-12-05T08:46:55;6.40;;;4.03;;
38609;SDS011;24367;51.640;9.566;2022-12-05T08:49:23;7.72;;;3.92;;
38609;SDS011;24367;51.640;9.566;2022-12-05T08:51:50;6.00;;;4.13;;
38609;SDS011;24367;51.640;9.566;2022-12-05T08:54:16;7.05;;;4.18;;
38609;SDS011;24367;51.640;9.566;2022-12-05T08:56:43;5.70;;;3.80;;
38609;SDS011;24367;51.640;9.566;2022-12-05T08:59:10;4.47;;;3.80;;
38609;SDS011;24367;51.640;9.566;2022-12-05T09:01:36;4.88;;;4.00;;
38609;SDS011;24367;51.640;9.566;2022-12-05T09:04:04;4.63;;;3.83;;
38609;SDS011;24367;51.640;9.566;2022-12-05T09:06:32;5.00;;;3.65;;
38609;SDS011;24367;51.640;9.566;2022-12-05T09:09:00;7.43;;;4.20;;
38609;SDS011;24367;51.640;9.566;2022-12-05T09:11:29;6.00;;;3.40;;
38609;SDS011;24367;51.640;9.566;2022-12-05T09:13:58;6.68;;;3.72;;
38609;SDS011;24367;51.640;9.566;2022-12-05T09:16:26;4.43;;;3.70;;
38609;SDS011;24367;51.640;9.566;2022-12-05T09:18:54;4.28;;;3.60;;
38609;SDS011;24367;51.640;9.566;2022-12-05T09:21:22;4.43;;;3.60;;
38609;SDS011;24367;51.640;9.566;2022-12-05T09:23:51;5.30;;;4.00;;
38609;SDS011;24367;51.640;9.566;2022-12-05T09:26:19;4.82;;;4.32;;
38609;SDS011;24367;51.640;9.566;2022-12-05T09:28:47;5.53;;;4.07;;
38609;SDS011;24367;51.640;9.566;2022-12-05T09:31:14;4.90;;;3.95;;
38609;SDS011;24367;51.640;9.566;2022-12-05T09:33:42;4.75;;;4.30;;
38609;SDS011;24367;51.640;9.566;2022-12-05T09:36:11;4.63;;;4.00;;
38609;SDS011;24367;51.640;9.566;2022-12-05T09:38:40;5.10;;;3.80;;
38609;SDS011;24367;51.640;9.566;2022-12-05T09:41:11;5.57;;;3.58;;
38609;SDS011;24367;51.640;9.566;2022-12-05T09:43:47;5.00;;;4.07;;
38609;SDS011;24367;51.640;9.566;2022-12-05T09:46:19;5.60;;;3.70;;
38609;SDS011;24367;51.640;9.566;2022-12-05T09:48:50;4.90;;;4.05;;
38609;SDS011;24367;51.640;9.566;2022-12-05T09:51:17;4.55;;;3.97;;
38609;SDS011;24367;51.640;9.566;2022-12-05T09:53:43;6.05;;;3.92;;
38609;SDS011;24367;51.640;9.566;2022-12-05T09:56:15;7.68;;;4.00;;
38609;SDS011;24367;51.640;9.566;2022-12-05T09:58:47;4.80;;;4.05;;
38609;SDS011;24367;51.640;9.566;2022-12-05T10:01:20;4.57;;;3.88;;
38609;SDS011;24367;51.640;9.566;2022-12-05T10:03:54;5.00;;;4.13;;
38609;SDS011;24367;51.640;9.566;2022-12-05T10:06:43;5.18;;;4.57;;
38609;SDS011;24367;51.640;9.566;2022-12-05T10:09:19;4.63;;;4.13;;
38609;SDS011;24367;51.640;9.566;2022-12-05T10:11:56;5.22;;;4.72;;
38609;SDS011;24367;51.640;9.566;2022-12-05T10:14:26;7.38;;;4.72;;
38609;SDS011;24367;51.640;9.566;2022-12-05T10:16:58;4.55;;;4.10;;
38609;SDS011;24367;51.640;9.566;2022-12-05T10:19:30;4.75;;;4.13;;
38609;SDS011;24367;51.640;9.566;2022-12-05T10:22:00;11.00;;;5.30;;
38609;SDS011;24367;51.640;9.566;2022-12-05T10:24:31;6.88;;;5.32;;
38609;SDS011;24367;51.640;9.566;2022-12-05T10:27:03;6.53;;;4.85;;
38609;SDS011;24367;51.640;9.566;2022-12-05T10:29:33;7.05;;;5.63;;
38609;SDS011;24367;51.640;9.566;2022-12-05T10:32:03;6.78;;;5.57;;
38609;SDS011;24367;51.640;9.566;2022-12-05T10:34:31;9.40;;;5.28;;
38609;SDS011;24367;51.640;9.566;2022-12-05T10:37:01;7.47;;;6.03;;
38609;SDS011;24367;51.640;9.566;2022-12-05T10:39:35;6.68;;;5.82;;
38609;SDS011;24367;51.640;9.566;2022-12-05T10:42:03;7.07;;;5.97;;
38609;SDS011;24367;51.640;9.566;2022-12-05T10:44:31;8.15;;;5.90;;
38609;SDS011;24367;51.640;9.566;2022-12-05T10:46:57;7.75;;;5.22;;
38609;SDS011;24367;51.640;9.566;2022-12-05T10:49:25;8.27;;;6.28;;
38609;SDS011;24367;51.640;9.566;2022-12-05T10:51:52;7.53;;;6.15;;
38609;SDS011;24367;51.640;9.566;2022-12-05T10:54:20;8.90;;;6.10;;
38609;SDS011;24367;51.640;9.566;2022-12-05T10:56:49;7.28;;;6.07;;
38609;SDS011;24367;51.640;9.566;2022-12-05T10:59:19;8.57;;;5.70;;
38609;SDS011;24367;51.640;9.566;2022-12-05T11:01:48;26.75;;;7.22;;
38609;SDS011;24367;51.640;9.566;2022-12-05T11:04:18;8.43;;;5.55;;
38609;SDS011;24367;51.640;9.566;2022-12-05T11:06:50;10.60;;;6.97;;
38609;SDS011;24367;51.640;9.566;2022-12-05T11:09:20;7.45;;;6.65;;
38609;SDS011;24367;51.640;9.566;2022-12-05T11:11:56;7.15;;;6.30;;
38609;SDS011;24367;51.640;9.566;2022-12-05T11:14:27;9.63;;;6.47;;
38609;SDS011;24367;51.640;9.566;2022-12-05T11:16:55;7.47;;;6.00;;
38609;SDS011;24367;51.640;9.566;2022-12-05T11:19:24;8.02;;;6.72;;
38609;SDS011;24367;51.640;9.566;2022-12-05T11:21:52;8.20;;;7.30;;
38609;SDS011;24367;51.640;9.566;2022-12-05T11:24:20;7.90;;;7.10;;
38609;SDS011;24367;51.640;9.566;2022-12-05T11:26:48;7.95;;;7.07;;
38609;SDS011;24367;51.640;9.566;2022-12-05T11:29:28;7.60;;;6.72;;
38609;SDS011;24367;51.640;9.566;2022-12-05T11:31:56;10.80;;;7.28;;
38609;SDS011;24367;51.640;9.566;2022-12-05T11:34:23;8.02;;;6.45;;
38609;SDS011;24367;51.640;9.566;2022-12-05T11:36:53;7.53;;;6.72;;
38609;SDS011;24367;51.640;9.566;2022-12-05T11:39:21;8.07;;;7.07;;
38609;SDS011;24367;51.640;9.566;2022-12-05T11:41:55;8.15;;;6.82;;
38609;SDS011;24367;51.640;9.566;2022-12-05T11:44:30;8.82;;;6.95;;
38609;SDS011;24367;51.640;9.566;2022-12-05T11:47:13;10.15;;;7.07;;
38609;SDS011;24367;51.640;9.566;2022-12-05T11:49:57;7.07;;;6.38;;
38609;SDS011;24367;51.640;9.566;2022-12-05T11:52:31;7.75;;;6.93;;
38609;SDS011;24367;51.640;9.566;2022-12-05T11:55:06;8.02;;;7.25;;
38609;SDS011;24367;51.640;9.566;2022-12-05T11:57:42;8.18;;;7.10;;
38609;SDS011;24367;51.640;9.566;2022-12-05T12:00:18;9.18;;;7.13;;
38609;SDS011;24367;51.640;9.566;2022-12-05T12:05:49;7.82;;;7.07;;
38609;SDS011;24367;51.640;9.566;2022-12-05T12:08:20;10.45;;;6.55;;
38609;SDS011;24367;51.640;9.566;2022-12-05T12:10:52;11.65;;;7.13;;
38609;SDS011;24367;51.640;9.566;2022-12-05T12:13:29;8.77;;;7.00;;
38609;SDS011;24367;51.640;9.566;2022-12-05T12:16:07;8.55;;;6.80;;
38609;SDS011;24367;51.640;9.566;2022-12-05T12:18:44;7.18;;;6.18;;
38609;SDS011;24367;51.640;9.566;2022-12-05T12:21:18;7.55;;;6.72;;
38609;SDS011;24367;51.640;9.566;2022-12-05T12:23:55;7.30;;;6.47;;
38609;SDS011;24367;51.640;9.566;2022-12-05T12:26:29;7.63;;;6.35;;
38609;SDS011;24367;51.640;9.566;2022-12-05T12:29:02;7.00;;;6.22;;
38609;SDS011;24367;51.640;9.566;2022-12-05T12:31:36;7.63;;;6.78;;
38609;SDS011;24367;51.640;9.566;2022-12-05T12:34:12;7.15;;;6.45;;
38609;SDS011;24367;51.640;9.566;2022-12-05T12:37:01;7.43;;;6.65;;
38609;SDS011;24367;51.640;9.566;2022-12-05T12:39:31;7.68;;;6.50;;
38609;SDS011;24367;51.640;9.566;2022-12-05T12:47:30;7.85;;;7.05;;
38609;SDS011;24367;51.640;9.566;2022-12-05T12:50:06;9.48;;;7.00;;
38609;SDS011;24367;51.640;9.566;2022-12-05T12:52:42;11.10;;;6.70;;
38609;SDS011;24367;51.640;9.566;2022-12-05T12:55:17;7.57;;;6.80;;
38609;SDS011;24367;51.640;9.566;2022-12-05T12:57:51;9.88;;;7.45;;
38609;SDS011;24367;51.640;9.566;2022-12-05T13:00:27;9.82;;;7.13;;
38609;SDS011;24367;51.640;9.566;2022-12-05T13:03:04;8.38;;;6.93;;
38609;SDS011;24367;51.640;9.566;2022-12-05T13:05:31;31.05;;;8.10;;
38609;SDS011;24367;51.640;9.566;2022-12-05T13:08:01;9.02;;;7.22;;
38609;SDS011;24367;51.640;9.566;2022-12-05T13:10:31;8.52;;;6.85;;
38609;SDS011;24367;51.640;9.566;2022-12-05T13:13:00;7.25;;;6.55;;
38609;SDS011;24367;51.640;9.566;2022-12-05T13:15:30;8.45;;;7.13;;
38609;SDS011;24367;51.640;9.566;2022-12-05T13:17:59;7.35;;;6.65;;
38609;SDS011;24367;51.640;9.566;2022-12-05T13:20:29;7.68;;;6.88;;
38609;SDS011;24367;51.640;9.566;2022-12-05T13:22:58;8.75;;;6.50;;
38609;SDS011;24367;51.640;9.566;2022-12-05T13:25:27;10.57;;;7.20;;
38609;SDS011;24367;51.640;9.566;2022-12-05T13:27:55;8.20;;;6.63;;
38609;SDS011;24367;51.640;9.566;2022-12-05T13:30:23;18.92;;;6.75;;
38609;SDS011;24367;51.640;9.566;2022-12-05T13:32:54;7.20;;;6.13;;
38609;SDS011;24367;51.640;9.566;2022-12-05T13:35:23;8.32;;;6.43;;
38609;SDS011;24367;51.640;9.566;2022-12-05T13:38:18;9.48;;;6.85;;
38609;SDS011;24367;51.640;9.566;2022-12-05T13:41:03;8.57;;;7.68;;
38609;SDS011;24367;51.640;9.566;2022-12-05T13:43:49;7.30;;;6.32;;
38609;SDS011;24367;51.640;9.566;2022-12-05T13:46:21;9.27;;;6.95;;
38609;SDS011;24367;51.640;9.566;2022-12-05T13:48:51;7.45;;;6.70;;
38609;SDS011;24367;51.640;9.566;2022-12-05T13:51:28;7.93;;;7.13;;
38609;SDS011;24367;51.640;9.566;2022-12-05T13:53:57;14.38;;;7.00;;
38609;SDS011;24367;51.640;9.566;2022-12-05T13:56:26;11.40;;;7.43;;
38609;SDS011;24367;51.640;9.566;2022-12-05T13:58:54;7.97;;;7.18;;
38609;SDS011;24367;51.640;9.566;2022-12-05T14:10:04;7.70;;;6.70;;
38609;SDS011;24367;51.640;9.566;2022-12-05T14:15:47;8.25;;;6.57;;
38609;SDS011;24367;51.640;9.566;2022-12-05T14:18:15;10.43;;;6.40;;
38609;SDS011;24367;51.640;9.566;2022-12-05T14:21:00;8.45;;;6.88;;
38609;SDS011;24367;51.640;9.566;2022-12-05T14:23:42;10.70;;;6.45;;
38609;SDS011;24367;51.640;9.566;2022-12-05T14:26:20;9.98;;;6.75;;
38609;SDS011;24367;51.640;9.566;2022-12-05T14:29:02;9.07;;;6.90;;
38609;SDS011;24367;51.640;9.566;2022-12-05T14:31:44;11.27;;;6.93;;
38609;SDS011;24367;51.640;9.566;2022-12-05T14:34:17;7.85;;;7.05;;
38609;SDS011;24367;51.640;9.566;2022-12-05T14:36:55;9.73;;;6.85;;
38609;SDS011;24367;51.640;9.566;2022-12-05T14:39:31;9.70;;;7.60;;
38609;SDS011;24367;51.640;9.566;2022-12-05T14:42:02;9.05;;;7.18;;
38609;SDS011;24367;51.640;9.566;2022-12-05T14:44:30;8.48;;;6.82;;
38609;SDS011;24367;51.640;9.566;2022-12-05T14:46:59;9.27;;;6.93;;
38609;SDS011;24367;51.640;9.566;2022-12-05T14:49:33;8.75;;;6.55;;
38609;SDS011;24367;51.640;9.566;2022-12-05T14:52:07;7.47;;;6.65;;
38609;SDS011;24367;51.640;9.566;2022-12-05T14:54:36;9.73;;;6.88;;
38609;SDS011;24367;51.640;9.566;2022-12-05T14:57:06;9.20;;;6.68;;
38609;SDS011;24367;51.640;9.566;2022-12-05T14:59:37;8.00;;;7.20;;
38609;SDS011;24367;51.640;9.566;2022-12-05T15:02:15;8.75;;;7.25;;
38609;SDS011;24367;51.640;9.566;2022-12-05T15:04:47;10.00;;;7.40;;
38609;SDS011;24367;51.640;9.566;2022-12-05T15:07:16;15.95;;;7.45;;
38609;SDS011;24367;51.640;9.566;2022-12-05T15:09:52;10.50;;;7.30;;
38609;SDS011;24367;51.640;9.566;2022-12-05T15:12:21;9.10;;;6.97;;
38609;SDS011;24367;51.640;9.566;2022-12-05T15:18:38;13.10;;;7.25;;
38609;SDS011;24367;51.640;9.566;2022-12-05T15:21:06;14.98;;;7.72;;
38609;SDS011;24367;51.640;9.566;2022-12-05T15:23:41;12.48;;;7.13;;
38609;SDS011;24367;51.640;9.566;2022-12-05T15:28:40;8.63;;;7.00;;
38609;SDS011;24367;51.640;9.566;2022-12-05T15:31:07;9.10;;;5.78;;
38609;SDS011;24367;51.640;9.566;2022-12-05T15:33:38;11.02;;;6.72;;